createdAt,value
2019-01-22T00:01:14.302Z,95579.58
2019-01-22T00:03:43.799Z,95573.56
2019-01-22T00:06:13.249Z,95563.63
2019-01-22T00:08:42.748Z,95568.23
2019-01-22T00:11:12.295Z,95570.80
2019-01-22T00:13:41.793Z,95561.22
2019-01-22T00:16:11.261Z,95568.18
2019-01-22T00:18:40.764Z,95559.63
2019-01-22T00:21:10.248Z,95563.88
2019-01-22T00:23:39.755Z,95565.73
2019-01-22T00:26:09.337Z,95565.96
2019-01-22T00:28:38.818Z,95557.12
2019-01-22T00:31:08.292Z,95558.20
2019-01-22T00:33:38.224Z,95549.17
2019-01-22T00:36:07.776Z,95550.45
2019-01-22T00:38:37.270Z,95549.94
2019-01-22T00:41:06.774Z,95538.38
2019-01-22T00:43:36.292Z,95537.62
2019-01-22T00:46:05.929Z,95533.47
2019-01-22T00:48:35.458Z,95530.47
2019-01-22T00:51:05.086Z,95539.15
2019-01-22T00:53:34.583Z,95535.75
2019-01-22T00:56:04.144Z,95531.62
2019-01-22T00:58:33.690Z,95526.65
2019-01-22T01:01:03.155Z,95526.88
2019-01-22T01:03:32.675Z,95524.86
2019-01-22T01:06:02.198Z,95529.23
2019-01-22T01:08:31.687Z,95528.21
2019-01-22T01:11:01.228Z,95520.19
2019-01-22T01:13:31.063Z,95522.54
2019-01-22T01:16:00.526Z,95526.03
2019-01-22T01:18:30.031Z,95517.14
2019-01-22T01:20:59.518Z,95517.52
2019-01-22T01:23:29.045Z,95517.97
2019-01-22T01:25:58.515Z,95508.23
2019-01-22T01:28:47.349Z,95503.13
2019-01-22T01:31:28.885Z,95497.45
2019-01-22T01:34:17.913Z,95506.78
2019-01-22T01:37:06.714Z,95497.52
2019-01-22T01:39:55.596Z,95490.30
2019-01-22T01:42:44.528Z,95483.77
2019-01-22T01:45:33.372Z,95471.23
2019-01-22T01:48:22.158Z,95375.20
2019-01-22T01:51:10.991Z,95472.29
2019-01-22T01:53:59.857Z,95458.70
2019-01-22T01:56:29.332Z,95450.59
2019-01-22T01:58:58.839Z,95448.06
2019-01-22T02:01:28.495Z,95443.73
2019-01-22T02:03:58.000Z,95447.87
2019-01-22T02:06:27.502Z,95439.14
2019-01-22T02:08:56.998Z,95435.58
2019-01-22T02:11:26.558Z,95436.98
2019-01-22T02:13:56.329Z,95437.22
2019-01-22T02:16:33.264Z,95440.69
2019-01-22T02:19:19.271Z,95426.42
2019-01-22T02:22:02.052Z,95425.81
2019-01-22T02:24:38.891Z,95422.68
2019-01-22T02:27:24.343Z,95415.14
2019-01-22T02:30:19.673Z,95416.78
2019-01-22T02:33:08.598Z,95415.39
2019-01-22T02:35:48.283Z,95407.02
2019-01-22T02:39:09.665Z,95401.39
2019-01-22T02:41:43.864Z,95398.23
2019-01-22T02:44:26.767Z,95400.69
2019-01-22T02:47:15.753Z,95394.70
2019-01-22T02:49:55.362Z,95393.17
2019-01-22T02:52:41.196Z,95390.78
2019-01-22T02:55:24.313Z,95393.20
2019-01-22T02:58:14.673Z,95379.98
2019-01-22T03:01:21.816Z,95371.92
2019-01-22T03:04:01.762Z,95366.56
2019-01-22T03:07:08.708Z,95362.09
2019-01-22T03:10:05.283Z,95362.48
2019-01-22T03:13:01.833Z,95359.95
2019-01-22T03:16:13.282Z,95357.45
2019-01-22T03:19:02.278Z,95362.22
2019-01-22T03:21:51.177Z,95352.02
2019-01-22T03:24:54.840Z,95347.93
2019-01-22T03:27:49.137Z,95353.48
2019-01-22T03:30:26.045Z,95351.05
2019-01-22T03:33:09.252Z,95350.99
2019-01-22T03:35:51.908Z,95341.20
2019-01-22T03:38:34.803Z,95341.56
2019-01-22T03:41:37.245Z,95339.95
2019-01-22T03:44:22.821Z,95336.78
2019-01-22T03:47:28.047Z,95338.78
2019-01-22T03:50:24.158Z,95336.52
2019-01-22T03:52:58.350Z,95335.20
2019-01-22T03:55:51.632Z,95336.48
2019-01-22T03:58:21.476Z,95334.29
2019-01-22T04:00:51.429Z,95334.28
2019-01-22T04:03:21.061Z,95334.38
2019-01-22T04:05:50.584Z,95335.00
2019-01-22T04:08:20.051Z,95338.08
2019-01-22T04:10:52.934Z,95339.81
2019-01-22T04:13:22.443Z,95334.09
2019-01-22T04:15:52.285Z,95330.27
2019-01-22T04:18:21.801Z,95335.03
2019-01-22T04:20:52.112Z,95330.84
2019-01-22T04:23:26.568Z,95318.83
2019-01-22T04:26:03.282Z,95319.23
2019-01-22T04:29:04.343Z,95314.11
2019-01-22T04:31:41.367Z,95313.55
2019-01-22T04:34:42.164Z,95310.72
2019-01-22T04:37:43.219Z,95308.18
2019-01-22T04:40:35.023Z,95305.45
2019-01-22T04:43:20.767Z,95300.77
2019-01-22T04:46:12.796Z,95297.95
2019-01-22T04:49:17.712Z,95293.60
2019-01-22T04:51:51.950Z,95292.16
2019-01-22T04:54:34.805Z,95284.81
2019-01-22T04:57:09.007Z,95283.66
2019-01-22T05:00:17.575Z,95278.05
2019-01-22T05:03:00.437Z,95283.05
2019-01-22T05:06:04.575Z,95271.56
2019-01-22T05:08:53.225Z,95270.71
2019-01-22T05:11:30.466Z,95260.46
2019-01-22T05:14:22.230Z,95263.27
2019-01-22T05:17:11.215Z,95252.98
2019-01-22T05:19:50.876Z,95246.50
2019-01-22T05:22:36.609Z,95254.16
2019-01-22T05:25:28.398Z,95249.30
2019-01-22T05:28:05.467Z,95244.67
2019-01-22T05:30:45.274Z,95247.69
2019-01-22T05:33:34.197Z,95243.05
2019-01-22T05:36:16.955Z,95243.13
2019-01-22T05:39:04.052Z,95239.63
2019-01-22T05:41:49.982Z,95245.17
2019-01-22T05:44:30.124Z,95245.82
2019-01-22T05:47:34.090Z,95241.89
2019-01-22T05:50:32.062Z,95243.26
2019-01-22T05:53:40.720Z,95235.57
2019-01-22T05:56:27.676Z,95235.77
2019-01-22T05:59:19.755Z,95233.16
2019-01-22T06:01:56.707Z,95244.11
2019-01-22T06:04:59.302Z,95250.17
2019-01-22T06:07:48.043Z,95243.30
2019-01-22T06:11:00.986Z,95243.81
2019-01-22T06:13:52.863Z,95244.05
2019-01-22T06:16:47.993Z,95241.20
2019-01-22T06:19:46.091Z,95241.01
2019-01-22T06:22:51.199Z,95239.06
2019-01-22T06:26:00.964Z,95239.89
2019-01-22T06:28:40.738Z,95236.11
2019-01-22T06:31:43.038Z,95236.75
2019-01-22T06:34:35.225Z,95234.53
2019-01-22T06:37:18.005Z,95228.27
2019-01-22T06:40:09.795Z,95228.73
2019-01-22T06:42:58.130Z,95222.86
2019-01-22T06:45:44.133Z,95227.78
2019-01-22T06:48:49.828Z,95227.06
2019-01-22T06:51:51.573Z,95226.04
2019-01-22T06:54:39.635Z,95221.79
2019-01-22T06:57:38.521Z,95218.05
2019-01-22T07:00:43.734Z,95216.69
2019-01-22T07:03:38.581Z,95220.75
2019-01-22T07:06:24.483Z,95219.98
2019-01-22T07:09:22.105Z,95211.10
2019-01-22T07:12:11.041Z,95220.12
2019-01-22T07:15:09.018Z,95215.44
2019-01-22T07:17:57.574Z,95213.44
2019-01-22T07:20:37.400Z,95209.71
2019-01-22T07:23:17.512Z,95210.07
2019-01-22T07:25:57.551Z,95214.68
2019-01-22T07:28:31.766Z,95210.89
2019-01-22T07:31:23.792Z,95210.95
2019-01-22T07:34:06.529Z,95210.39
2019-01-22T07:36:48.810Z,95208.13
2019-01-22T07:39:34.673Z,95203.52
2019-01-22T07:42:20.858Z,95198.89
2019-01-22T07:45:18.754Z,95197.52
2019-01-22T07:47:58.691Z,95193.03
2019-01-22T07:51:13.363Z,95188.27
2019-01-22T07:54:05.050Z,95185.14
2019-01-22T07:56:53.423Z,95188.34
2019-01-22T07:59:33.002Z,95179.94
2019-01-22T08:02:26.434Z,95182.34
2019-01-22T08:05:13.084Z,95177.00
2019-01-22T08:07:57.623Z,95170.67
2019-01-22T08:10:52.591Z,95178.75
2019-01-22T08:13:35.402Z,95173.86
2019-01-22T08:16:21.298Z,95168.23
2019-01-22T08:19:10.422Z,95165.73
2019-01-22T08:22:31.011Z,95163.21
2019-01-22T08:25:19.879Z,95164.94
2019-01-22T08:28:17.572Z,95157.67
2019-01-22T08:31:17.280Z,95153.31
2019-01-22T08:34:03.134Z,95155.73
2019-01-22T08:36:58.744Z,95159.16
2019-01-22T08:39:50.543Z,95155.88
2019-01-22T08:42:54.766Z,95156.28
2019-01-22T08:46:06.212Z,95152.06
2019-01-22T08:48:52.136Z,95151.53
2019-01-22T08:51:49.882Z,95147.11
2019-01-22T08:54:43.204Z,95148.42
2019-01-22T08:57:57.521Z,95148.97
2019-01-22T09:00:52.459Z,95146.47
2019-01-22T09:03:43.971Z,95148.13
2019-01-22T09:06:29.560Z,95141.73
2019-01-22T09:09:15.433Z,95139.12
2019-01-22T09:12:16.151Z,95139.43
2019-01-22T09:15:18.739Z,95130.11
2019-01-22T09:17:58.137Z,95134.73
2019-01-22T09:20:50.160Z,95125.71
2019-01-22T09:23:39.064Z,95124.69
2019-01-22T09:26:27.679Z,95126.00
2019-01-22T09:29:23.654Z,95128.58
2019-01-22T09:32:18.250Z,95126.33
2019-01-22T09:35:23.622Z,95123.38
2019-01-22T09:37:53.232Z,95117.94
2019-01-22T09:40:24.361Z,95119.98
2019-01-22T09:42:54.068Z,95126.50
2019-01-22T09:45:23.561Z,95123.59
2019-01-22T09:47:53.030Z,95120.97
2019-01-22T09:50:22.560Z,95112.30
2019-01-22T09:52:52.072Z,95106.31
2019-01-22T09:55:22.540Z,95101.16
2019-01-22T09:57:52.231Z,95104.47
2019-01-22T10:00:22.823Z,95098.28
2019-01-22T10:02:52.315Z,95097.02
2019-01-22T10:05:21.800Z,95101.12
2019-01-22T10:07:51.312Z,95086.16
2019-01-22T10:10:23.399Z,95084.59
2019-01-22T10:12:52.927Z,95091.95
2019-01-22T10:15:23.323Z,95089.14
2019-01-22T10:17:52.792Z,95086.47
2019-01-22T10:20:24.371Z,95076.67
2019-01-22T10:22:54.018Z,95070.84
2019-01-22T10:25:29.363Z,95056.31
2019-01-22T10:27:54.740Z,95065.87
2019-01-22T10:30:25.765Z,95059.48
2019-01-22T10:32:55.255Z,95054.95
2019-01-22T10:35:24.737Z,95053.03
2019-01-22T10:37:54.254Z,95045.87
2019-01-22T10:40:27.689Z,95038.07
2019-01-22T10:42:57.162Z,95037.38
2019-01-22T10:45:26.700Z,95029.31
2019-01-22T10:47:56.160Z,95015.47
2019-01-22T10:50:25.901Z,95022.46
2019-01-22T10:52:55.348Z,95013.14
2019-01-22T10:55:24.870Z,95011.07
2019-01-22T10:57:54.333Z,95006.30
2019-01-22T11:00:27.725Z,95001.52
2019-01-22T11:02:57.224Z,94991.27
2019-01-22T11:05:34.348Z,94988.53
2019-01-22T11:08:03.855Z,94990.45
2019-01-22T11:10:33.343Z,94986.03
2019-01-22T11:13:03.008Z,94981.14
2019-01-22T11:15:32.581Z,94977.23
2019-01-22T11:18:02.115Z,94974.93
2019-01-22T11:20:32.439Z,94974.66
2019-01-22T11:23:01.941Z,94965.58
2019-01-22T11:25:33.604Z,94967.02
2019-01-22T11:28:03.112Z,94951.16
2019-01-22T11:30:32.685Z,94947.36
2019-01-22T11:33:02.381Z,94946.18
2019-01-22T11:35:31.923Z,94939.93
2019-01-22T11:38:01.472Z,94940.97
2019-01-22T11:40:35.394Z,94941.35
2019-01-22T11:43:05.230Z,94938.35
2019-01-22T11:45:34.701Z,94928.77
2019-01-22T11:48:05.141Z,94923.64
2019-01-22T11:50:34.599Z,94925.00
2019-01-22T11:53:04.275Z,94912.47
2019-01-22T11:55:33.737Z,94912.00
2019-01-22T11:58:03.234Z,94901.11
2019-01-22T12:00:37.637Z,94893.74
2019-01-22T12:03:07.400Z,94893.35
2019-01-22T12:05:36.907Z,94887.39
2019-01-22T12:08:06.743Z,94884.05
2019-01-22T12:10:36.240Z,94882.62
2019-01-22T12:13:05.901Z,94873.66
2019-01-22T12:15:35.374Z,94866.28
2019-01-22T12:18:06.523Z,94860.73
2019-01-22T12:20:39.986Z,94861.97
2019-01-22T12:23:09.483Z,94850.33
2019-01-22T12:25:38.941Z,94854.16
2019-01-22T12:28:08.523Z,94846.09
2019-01-22T12:30:38.957Z,94841.44
2019-01-22T12:33:08.502Z,94831.80
2019-01-22T12:35:38.079Z,94833.50
2019-01-22T12:38:07.842Z,94823.81
2019-01-22T12:40:37.286Z,94813.96
2019-01-22T12:43:07.220Z,94806.80
2019-01-22T12:45:40.506Z,94801.13
2019-01-22T12:48:10.072Z,94789.59
2019-01-22T12:50:39.779Z,94791.48
2019-01-22T12:53:09.365Z,94782.75
2019-01-22T12:55:38.914Z,94779.63
2019-01-22T12:58:08.465Z,94776.67
2019-01-22T13:00:39.030Z,94766.15
2019-01-22T13:03:08.761Z,94765.28
2019-01-22T13:05:51.043Z,94762.98
2019-01-22T13:08:20.583Z,94763.74
2019-01-22T13:10:50.058Z,94756.14
2019-01-22T13:13:19.566Z,94754.41
2019-01-22T13:15:49.207Z,94742.74
2019-01-22T13:18:19.679Z,94742.89
2019-01-22T13:20:49.263Z,94742.23
2019-01-22T13:23:19.023Z,94732.13
2019-01-22T13:25:48.478Z,94733.41
2019-01-22T13:28:17.995Z,94733.43
2019-01-22T13:30:47.640Z,94727.64
2019-01-22T13:33:17.163Z,94723.86
2019-01-22T13:35:46.621Z,94710.64
2019-01-22T13:38:16.199Z,94706.01
2019-01-22T13:40:45.694Z,94706.11
2019-01-22T13:43:15.211Z,94698.58
2019-01-22T13:45:44.662Z,94693.55
2019-01-22T13:48:16.269Z,94687.22
2019-01-22T13:50:45.725Z,94691.60
2019-01-22T13:53:16.106Z,94691.56
2019-01-22T13:55:45.646Z,94693.96
2019-01-22T13:58:15.163Z,94686.56
2019-01-22T14:00:44.626Z,94679.17
2019-01-22T14:03:14.152Z,94680.28
2019-01-22T14:05:43.673Z,94674.16
2019-01-22T14:08:13.235Z,94675.91
2019-01-22T14:10:42.699Z,94671.94
2019-01-22T14:13:12.233Z,94666.41
2019-01-22T14:15:42.253Z,94658.47
2019-01-22T14:18:11.881Z,94658.59
2019-01-22T14:20:41.449Z,94656.00
2019-01-22T14:23:10.964Z,94652.50
2019-01-22T14:25:40.423Z,94647.94
2019-01-22T14:28:10.005Z,94640.89
2019-01-22T14:30:40.602Z,94640.28
2019-01-22T14:33:10.154Z,94638.05
2019-01-22T14:35:39.671Z,94635.70
2019-01-22T14:38:09.217Z,94635.00
2019-01-22T14:40:38.691Z,94636.74
2019-01-22T14:43:08.173Z,94626.59
2019-01-22T14:45:37.857Z,94624.95
2019-01-22T14:48:07.331Z,94623.97
2019-01-22T14:50:36.781Z,94626.75
2019-01-22T14:53:06.368Z,94618.22
2019-01-22T14:55:35.841Z,94614.09
2019-01-22T14:58:05.585Z,94614.93
2019-01-22T15:00:35.048Z,94612.23
2019-01-22T15:03:04.925Z,94609.38
2019-01-22T15:05:34.402Z,94600.20
2019-01-22T15:08:04.006Z,94590.58
2019-01-22T15:10:33.496Z,94587.68
2019-01-22T15:13:03.050Z,94586.83
2019-01-22T15:15:32.546Z,94580.53
2019-01-22T15:18:02.099Z,94587.30
2019-01-22T15:20:31.614Z,94591.73
2019-01-22T15:23:01.131Z,94580.14
2019-01-22T15:25:30.602Z,94581.06
2019-01-22T15:28:00.139Z,94578.31
2019-01-22T15:30:32.630Z,94574.34
2019-01-22T15:33:02.139Z,94569.16
2019-01-22T15:35:31.608Z,94559.94
2019-01-22T15:38:01.117Z,94559.38
2019-01-22T15:40:31.912Z,94554.00
2019-01-22T15:43:01.474Z,94549.48
2019-01-22T15:45:31.019Z,94542.34
2019-01-22T15:48:00.577Z,94536.25
2019-01-22T15:50:30.068Z,94547.36
2019-01-22T15:52:59.565Z,94536.81
2019-01-22T15:55:32.338Z,94538.13
2019-01-22T15:58:01.913Z,94531.28
2019-01-22T16:00:31.366Z,94537.25
2019-01-22T16:03:00.870Z,94536.25
2019-01-22T16:05:30.393Z,94527.38
2019-01-22T16:07:59.909Z,94525.09
2019-01-22T16:10:29.365Z,94517.11
2019-01-22T16:12:58.943Z,94512.77
2019-01-22T16:15:28.406Z,94508.91
2019-01-22T16:17:58.027Z,94504.41
2019-01-22T16:20:28.449Z,94499.59
2019-01-22T16:22:57.998Z,94490.77
2019-01-22T16:25:27.878Z,94489.97
2019-01-22T16:27:57.504Z,94488.83
2019-01-22T16:30:27.333Z,94497.45
2019-01-22T16:32:57.006Z,94494.73
2019-01-22T16:35:26.822Z,94491.91
2019-01-22T16:37:56.440Z,94488.44
2019-01-22T16:40:26.086Z,94483.73
2019-01-22T16:42:55.651Z,94479.25
2019-01-22T16:45:29.249Z,94475.98
2019-01-22T16:47:58.808Z,94472.72
2019-01-22T16:50:31.105Z,94462.68
2019-01-22T16:53:02.924Z,94461.25
2019-01-22T16:55:36.574Z,94454.48
2019-01-22T16:58:06.344Z,94452.02
2019-01-22T17:00:37.481Z,94442.88
2019-01-22T17:03:09.072Z,94443.97
2019-01-22T17:05:38.960Z,94444.47
2019-01-22T17:08:08.522Z,94434.44
2019-01-22T17:10:38.079Z,94424.87
2019-01-22T17:13:07.678Z,94444.70
2019-01-22T17:15:37.160Z,94444.52
2019-01-22T17:18:06.928Z,94445.23
2019-01-22T17:20:39.456Z,94442.40
2019-01-22T17:23:09.462Z,94434.75
2019-01-22T17:25:39.014Z,94432.40
2019-01-22T17:28:08.494Z,94427.04
2019-01-22T17:30:38.122Z,94434.92
2019-01-22T17:33:19.443Z,94435.11
2019-01-22T17:35:49.313Z,94431.03
2019-01-22T17:38:18.992Z,94427.47
2019-01-22T17:40:48.558Z,94427.73
2019-01-22T17:43:18.038Z,94426.70
2019-01-22T17:45:47.580Z,94422.25
2019-01-22T17:48:17.216Z,94420.88
2019-01-22T17:50:46.733Z,94417.50
2019-01-22T17:53:16.216Z,94419.80
2019-01-22T17:55:45.769Z,94420.75
2019-01-22T17:58:15.277Z,94411.49
2019-01-22T18:00:47.345Z,94415.56
2019-01-22T18:03:16.930Z,94415.78
2019-01-22T18:05:46.479Z,94415.89
2019-01-22T18:08:15.983Z,94417.53
2019-01-22T18:10:45.497Z,94417.00
2019-01-22T18:13:15.010Z,94404.16
2019-01-22T18:15:44.590Z,94405.22
2019-01-22T18:18:14.052Z,94404.00
2019-01-22T18:20:43.600Z,94397.86
2019-01-22T18:23:13.073Z,94394.66
2019-01-22T18:25:42.678Z,94392.77
2019-01-22T18:28:12.157Z,94388.99
2019-01-22T18:30:41.715Z,94387.31
2019-01-22T18:33:11.251Z,94384.81
2019-01-22T18:35:41.803Z,94386.27
2019-01-22T18:38:12.208Z,94390.47
2019-01-22T18:40:41.763Z,94387.92
2019-01-22T18:43:11.324Z,94393.16
2019-01-22T18:45:40.912Z,94385.39
2019-01-22T18:48:10.416Z,94382.34
2019-01-22T18:50:39.923Z,94383.85
2019-01-22T18:53:09.428Z,94378.59
2019-01-22T18:55:38.933Z,94382.34
2019-01-22T18:58:08.537Z,94377.56
2019-01-22T19:00:38.063Z,94370.13
2019-01-22T19:03:07.528Z,94370.38
2019-01-22T19:05:37.073Z,94368.02
2019-01-22T19:08:06.526Z,94366.55
2019-01-22T19:10:36.208Z,94362.42
2019-01-22T19:13:05.819Z,94365.65
2019-01-22T19:15:35.395Z,94359.61
2019-01-22T19:18:05.065Z,94362.48
2019-01-22T19:20:34.601Z,94361.58
2019-01-22T19:23:04.076Z,94362.21
2019-01-22T19:25:33.638Z,94355.08
2019-01-22T19:28:03.127Z,94347.19
2019-01-22T19:30:33.408Z,94345.60
2019-01-22T19:33:02.903Z,94333.36
2019-01-22T19:35:32.458Z,94348.93
2019-01-22T19:38:01.926Z,94348.33
2019-01-22T19:40:31.520Z,94344.57
2019-01-22T19:43:00.986Z,94343.19
2019-01-22T19:45:35.296Z,94338.79
2019-01-22T19:48:04.974Z,94342.72
2019-01-22T19:50:34.558Z,94336.13
2019-01-22T19:53:04.269Z,94335.42
2019-01-22T19:55:35.218Z,94326.37
2019-01-22T19:58:05.116Z,94324.67
2019-01-22T20:00:36.935Z,94326.39
2019-01-22T20:03:06.940Z,94316.27
2019-01-22T20:05:36.594Z,94317.24
2019-01-22T20:08:06.464Z,94313.45
2019-01-22T20:10:36.035Z,94313.16
2019-01-22T20:13:05.856Z,94317.18
2019-01-22T20:15:35.427Z,94306.13
2019-01-22T20:18:05.074Z,94308.15
2019-01-22T20:20:34.579Z,94293.95
2019-01-22T20:23:04.175Z,94299.82
2019-01-22T20:25:36.216Z,94300.52
2019-01-22T20:28:05.983Z,94292.36
2019-01-22T20:30:36.862Z,94295.50
2019-01-22T20:33:06.529Z,94293.58
2019-01-22T20:35:36.080Z,94292.69
2019-01-22T20:38:06.215Z,94290.57
2019-01-22T20:40:36.005Z,94287.76
2019-01-22T20:43:05.640Z,94292.36
2019-01-22T20:45:35.119Z,94287.46
2019-01-22T20:48:04.789Z,94285.02
2019-01-22T20:50:34.258Z,94281.20
2019-01-22T20:53:04.000Z,94285.94
2019-01-22T20:55:33.567Z,94280.86
2019-01-22T20:58:03.077Z,94274.44
2019-01-22T21:00:33.660Z,94279.67
2019-01-22T21:03:03.212Z,94275.66
2019-01-22T21:05:32.692Z,94270.98
2019-01-22T21:08:02.231Z,94267.05
2019-01-22T21:10:33.605Z,94259.20
2019-01-22T21:13:03.158Z,94260.80
2019-01-22T21:15:33.363Z,94251.55
2019-01-22T21:18:02.874Z,94246.41
2019-01-22T21:20:32.343Z,94243.97
2019-01-22T21:23:01.858Z,94235.92
2019-01-22T21:25:31.396Z,94237.72
2019-01-22T21:28:01.894Z,94236.44
2019-01-22T21:30:36.398Z,94229.20
2019-01-22T21:33:07.320Z,94232.97
2019-01-22T21:35:37.084Z,94222.39
2019-01-22T21:38:06.704Z,94229.42
2019-01-22T21:40:36.161Z,94216.58
2019-01-22T21:43:05.945Z,94217.15
2019-01-22T21:45:35.415Z,94219.24
2019-01-22T21:48:05.527Z,94216.13
2019-01-22T21:50:35.174Z,94208.40
2019-01-22T21:53:05.422Z,94208.56
2019-01-22T21:55:34.896Z,94208.05
2019-01-22T21:58:08.360Z,94208.87
2019-01-22T22:00:36.039Z,94208.05
2019-01-22T22:03:05.717Z,94202.36
2019-01-22T22:05:35.179Z,94212.95
2019-01-22T22:08:05.282Z,94204.76
2019-01-22T22:10:34.831Z,94204.86
2019-01-22T22:13:04.467Z,94201.72
2019-01-22T22:15:33.951Z,94197.80
2019-01-22T22:18:03.486Z,94199.28
2019-01-22T22:20:33.006Z,94193.63
2019-01-22T22:23:02.491Z,94195.43
2019-01-22T22:25:32.067Z,94202.20
2019-01-22T22:28:01.617Z,94194.81
2019-01-22T22:30:34.982Z,94186.54
2019-01-22T22:33:05.214Z,94188.52
2019-01-22T22:35:34.898Z,94180.30
2019-01-22T22:38:04.793Z,94177.22
2019-01-22T22:40:34.259Z,94178.09
2019-01-22T22:43:04.032Z,94180.59
2019-01-22T22:45:33.498Z,94169.91
2019-01-22T22:48:03.049Z,94168.35
2019-01-22T22:50:33.447Z,94168.60
2019-01-22T22:53:02.999Z,94159.88
2019-01-22T22:55:32.911Z,94155.80
2019-01-22T22:58:02.392Z,94158.39
2019-01-22T23:00:48.247Z,94159.00
2019-01-22T23:03:18.086Z,94148.06
2019-01-22T23:05:47.695Z,94148.13
2019-01-22T23:08:17.212Z,94141.16
2019-01-22T23:10:46.678Z,94137.31
2019-01-22T23:13:16.220Z,94138.52
2019-01-22T23:15:45.710Z,94128.30
2019-01-22T23:18:15.347Z,94124.77
2019-01-22T23:20:44.794Z,94118.70
2019-01-22T23:23:14.303Z,94121.12
2019-01-22T23:25:43.794Z,94116.71
2019-01-22T23:28:13.303Z,94116.86
2019-01-22T23:30:42.777Z,94120.69
2019-01-22T23:33:12.311Z,94116.05
2019-01-22T23:35:41.770Z,94122.41
2019-01-22T23:38:11.276Z,94113.16
2019-01-22T23:40:40.841Z,94114.00
2019-01-22T23:43:10.334Z,94111.27
2019-01-22T23:45:39.888Z,94107.34
2019-01-22T23:48:09.369Z,94105.91
2019-01-22T23:50:38.831Z,94103.45
2019-01-22T23:53:08.333Z,94098.73
2019-01-22T23:55:37.808Z,94094.80
2019-01-22T23:58:07.309Z,94088.16
